Time;durP1;ratioP1;P1;durP2;ratioP2;P2;SDS_P1;SDS_P2;PMS_P1;PMS_P2;Temp;Humidity;BMP_temperature;BMP_pressure;BME280_temperature;BME280_humidity;BME280_pressure;Samples;Min_cycle;Max_cycle;Signal;HPM_P1;HPM_P2
2022/05/19 00:01:45;;;;;;;3.92;1.70;;;12.60;99.90;;;;;;4988466;28;20390;-95
2022/05/19 00:04:11;;;;;;;4.53;1.88;;;12.60;99.90;;;;;;4985278;28;20034;-95
2022/05/19 00:06:38;;;;;;;6.72;1.63;;;12.60;99.90;;;;;;4994245;28;20388;-94
2022/05/19 00:09:03;;;;;;;4.63;1.98;;;12.50;99.90;;;;;;4996000;28;20050;-93
2022/05/19 00:11:34;;;;;;;5.40;1.55;;;12.60;99.90;;;;;;4998417;28;20029;-94
2022/05/19 00:14:01;;;;;;;4.53;1.48;;;12.60;99.90;;;;;;4997640;28;20050;-96
2022/05/19 00:16:29;;;;;;;3.92;1.50;;;12.60;99.90;;;;;;4994716;28;20041;-94
2022/05/19 00:18:55;;;;;;;4.20;1.60;;;12.60;99.90;;;;;;4997012;28;20037;-93
2022/05/19 00:21:21;;;;;;;3.42;1.73;;;12.60;99.90;;;;;;4993909;28;20042;-94
2022/05/19 00:23:47;;;;;;;6.40;1.80;;;12.70;99.90;;;;;;4984470;28;20061;-94
2022/05/19 00:26:13;;;;;;;5.93;1.65;;;12.70;99.90;;;;;;4988642;28;20031;-96
2022/05/19 00:28:39;;;;;;;5.50;1.45;;;12.70;99.90;;;;;;4988383;28;20037;-96
2022/05/19 00:31:05;;;;;;;6.60;1.50;;;12.70;99.90;;;;;;4997792;28;20065;-92
2022/05/19 00:33:31;;;;;;;4.28;1.63;;;12.70;99.90;;;;;;4998681;28;20026;-96
2022/05/19 00:35:56;;;;;;;3.72;1.50;;;12.70;99.90;;;;;;4998332;28;20030;-95
2022/05/19 00:38:22;;;;;;;3.83;1.50;;;12.70;99.90;;;;;;4999861;28;20034;-93
2022/05/19 00:40:50;;;;;;;4.95;1.70;;;12.70;99.90;;;;;;5000789;28;20041;-92
2022/05/19 00:43:29;;;;;;;4.65;1.90;;;12.70;99.90;;;;;;4998608;28;20036;-95
2022/05/19 00:46:20;;;;;;;2.53;1.50;;;12.60;99.90;;;;;;4997244;28;20034;-96
2022/05/19 00:49:04;;;;;;;7.80;1.90;;;12.60;99.90;;;;;;5000444;28;20003;-93
2022/05/19 00:51:46;;;;;;;2.58;1.33;;;12.60;99.90;;;;;;4999988;28;20054;-93
2022/05/19 00:54:21;;;;;;;4.30;1.48;;;12.50;99.90;;;;;;5000350;28;20015;-93
2022/05/19 00:57:08;;;;;;;4.40;1.35;;;12.50;99.90;;;;;;5000828;28;20042;-93
2022/05/19 00:59:40;;;;;;;8.48;2.25;;;12.50;99.90;;;;;;5000432;28;20057;-94
2022/05/19 01:02:09;;;;;;;6.43;1.77;;;12.40;99.90;;;;;;5000567;28;20030;-94
2022/05/19 01:04:53;;;;;;;3.08;1.20;;;12.30;99.90;;;;;;5000055;28;20022;-94
2022/05/19 01:08:15;;;;;;;4.05;1.83;;;12.30;99.90;;;;;;4989770;28;20042;-96
2022/05/19 01:10:42;;;;;;;8.02;2.03;;;12.30;99.90;;;;;;4946748;29;20047;-95
2022/05/19 01:13:08;;;;;;;5.70;1.73;;;12.20;99.90;;;;;;4940546;29;20039;-95
2022/05/19 01:15:39;;;;;;;4.28;1.45;;;12.20;99.90;;;;;;4939491;29;20023;-94
2022/05/19 01:18:04;;;;;;;7.35;1.88;;;12.10;99.90;;;;;;4938052;29;20054;-94
2022/05/19 01:20:30;;;;;;;5.43;1.80;;;12.00;99.90;;;;;;4937546;29;20031;-94
2022/05/19 01:23:12;;;;;;;4.95;1.77;;;12.00;99.90;;;;;;4937859;29;20023;-94
2022/05/19 01:25:52;;;;;;;5.80;1.85;;;12.00;99.90;;;;;;4937720;29;20035;-94
2022/05/19 01:28:18;;;;;;;4.30;1.95;;;12.00;99.90;;;;;;4937696;29;20031;-95
2022/05/19 01:30:44;;;;;;;8.23;2.08;;;12.00;99.90;;;;;;4938262;29;20045;-94
2022/05/19 01:33:10;;;;;;;3.67;1.83;;;11.90;99.90;;;;;;4936736;29;20032;-94
2022/05/19 01:35:36;;;;;;;6.07;2.60;;;11.90;99.90;;;;;;4936887;29;20027;-95
2022/05/19 01:38:06;;;;;;;7.05;1.75;;;11.80;99.90;;;;;;4937180;29;20406;-94
2022/05/19 01:40:41;;;;;;;7.03;1.70;;;11.80;99.90;;;;;;4937695;29;20449;-94
2022/05/19 01:43:20;;;;;;;5.35;1.98;;;11.80;99.90;;;;;;4937865;28;20267;-95
2022/05/19 01:46:13;;;;;;;4.10;1.67;;;11.80;99.90;;;;;;4976809;28;20034;-95
2022/05/19 01:48:57;;;;;;;7.60;1.77;;;11.80;99.90;;;;;;4976823;28;20391;-94
2022/05/19 01:51:39;;;;;;;6.30;1.67;;;11.80;99.90;;;;;;4976738;28;20045;-95
2022/05/19 01:54:14;;;;;;;7.00;2.47;;;11.80;99.90;;;;;;4977710;28;20027;-94
2022/05/19 01:57:04;;;;;;;7.53;2.00;;;11.80;99.90;;;;;;4981811;28;20034;-94
2022/05/19 01:59:54;;;;;;;3.33;2.03;;;11.80;99.90;;;;;;4987382;28;20042;-96
2022/05/19 02:03:05;;;;;;;6.65;2.90;;;11.70;99.90;;;;;;4988302;28;20041;-96
2022/05/19 02:05:40;;;;;;;6.88;3.08;;;11.70;99.90;;;;;;4975226;28;20034;-95
2022/05/19 02:08:17;;;;;;;5.15;3.15;;;11.70;99.90;;;;;;4991256;28;20038;-95
2022/05/19 02:10:47;;;;;;;5.90;3.10;;;11.80;99.90;;;;;;4995437;28;20034;-95
2022/05/19 02:13:15;;;;;;;6.72;2.35;;;11.70;99.90;;;;;;4986395;28;20042;-94
2022/05/19 02:15:47;;;;;;;5.10;2.40;;;11.80;99.90;;;;;;4981495;28;20113;-94
2022/05/19 02:18:15;;;;;;;10.55;2.55;;;11.80;99.90;;;;;;4983302;28;20026;-94
2022/05/19 02:20:43;;;;;;;8.70;2.53;;;11.70;99.90;;;;;;4993799;28;20023;-95
2022/05/19 02:23:11;;;;;;;7.53;2.88;;;11.60;99.90;;;;;;4988762;28;20034;-95
2022/05/19 02:25:43;;;;;;;6.80;2.83;;;11.60;99.90;;;;;;4982377;28;20023;-94
2022/05/19 02:28:22;;;;;;;6.20;3.58;;;11.60;99.90;;;;;;4983093;28;20026;-95
2022/05/19 02:30:47;;;;;;;7.78;2.28;;;11.50;99.90;;;;;;4980301;28;20038;-94
2022/05/19 02:33:16;;;;;;;10.95;2.70;;;11.50;99.90;;;;;;4980260;28;20027;-96
2022/05/19 02:35:43;;;;;;;5.82;2.65;;;11.50;99.90;;;;;;4980456;28;20022;-94
2022/05/19 02:38:09;;;;;;;4.80;2.35;;;11.40;99.90;;;;;;4980196;28;20031;-93
2022/05/19 02:40:37;;;;;;;7.53;2.40;;;11.40;99.90;;;;;;4979683;28;20156;-96
2022/05/19 02:43:04;;;;;;;8.10;2.80;;;11.40;99.90;;;;;;4979155;28;20472;-94
2022/05/19 02:45:30;;;;;;;3.80;1.90;;;11.30;99.90;;;;;;4982384;28;20035;-94
2022/05/19 02:47:57;;;;;;;5.60;2.72;;;11.30;99.90;;;;;;4978994;28;20026;-94
2022/05/19 02:50:23;;;;;;;3.55;2.25;;;11.20;99.90;;;;;;4979459;28;20034;-94
2022/05/19 02:52:49;;;;;;;4.30;2.55;;;11.10;99.90;;;;;;4979254;28;20581;-96
2022/05/19 02:55:15;;;;;;;6.32;2.63;;;11.00;99.90;;;;;;4979390;28;20038;-95
2022/05/19 02:57:42;;;;;;;4.00;1.90;;;11.00;99.90;;;;;;4981224;28;20033;-95
2022/05/19 03:00:22;;;;;;;3.88;2.28;;;10.90;99.90;;;;;;4978621;28;20029;-94
2022/05/19 03:02:48;;;;;;;4.73;2.53;;;10.90;99.90;;;;;;4980003;28;20026;-95
2022/05/19 03:05:17;;;;;;;6.18;3.20;;;10.90;99.90;;;;;;4979261;28;20301;-95
2022/05/19 03:07:43;;;;;;;4.63;2.60;;;10.90;99.90;;;;;;4979673;28;20499;-95
2022/05/19 03:10:09;;;;;;;4.35;2.28;;;10.90;99.90;;;;;;4979160;28;20034;-96
2022/05/19 03:12:35;;;;;;;6.97;2.95;;;10.80;99.90;;;;;;4979174;28;20077;-96
2022/05/19 03:15:02;;;;;;;4.68;1.92;;;10.90;99.90;;;;;;4978120;28;20040;-95
2022/05/19 03:17:27;;;;;;;6.85;3.65;;;10.80;99.90;;;;;;4977843;28;20077;-95
2022/05/19 03:19:55;;;;;;;8.35;2.35;;;10.90;99.90;;;;;;4977634;28;20027;-95
2022/05/19 03:22:21;;;;;;;5.07;2.92;;;10.90;99.90;;;;;;4979919;28;20022;-95
2022/05/19 03:24:47;;;;;;;6.03;2.65;;;10.90;99.90;;;;;;4978573;28;20042;-95
2022/05/19 03:27:13;;;;;;;8.32;2.30;;;11.00;99.90;;;;;;4977700;28;20030;-93
2022/05/19 03:29:39;;;;;;;7.78;3.10;;;10.90;99.90;;;;;;4977675;28;20556;-95
2022/05/19 03:32:05;;;;;;;8.27;2.85;;;11.00;99.90;;;;;;4977535;28;20030;-94
2022/05/19 03:34:31;;;;;;;8.35;2.50;;;11.00;99.90;;;;;;4978040;28;20033;-94
2022/05/19 03:36:56;;;;;;;6.32;2.60;;;10.90;99.90;;;;;;4977872;28;20027;-94
2022/05/19 03:39:22;;;;;;;5.70;1.90;;;10.90;99.90;;;;;;4977778;28;20042;-93
2022/05/19 03:41:48;;;;;;;7.70;2.05;;;10.90;99.90;;;;;;4978065;28;20065;-95
2022/05/19 03:44:14;;;;;;;10.45;2.60;;;10.90;99.90;;;;;;4978048;28;20141;-94
2022/05/19 03:46:40;;;;;;;9.73;2.45;;;10.90;99.90;;;;;;4977537;28;20102;-94
2022/05/19 03:49:05;;;;;;;4.45;2.00;;;10.90;99.90;;;;;;4977047;28;20023;-95
2022/05/19 03:51:33;;;;;;;4.05;3.13;;;10.80;99.90;;;;;;4977200;28;20088;-96
2022/05/19 03:53:59;;;;;;;3.88;2.30;;;10.80;99.90;;;;;;4978216;28;20023;-92
2022/05/19 03:56:25;;;;;;;4.32;2.33;;;10.80;99.90;;;;;;4985788;28;20097;-95
2022/05/19 03:58:52;;;;;;;6.22;2.20;;;10.80;99.90;;;;;;4981223;28;20022;-96
2022/05/19 04:01:19;;;;;;;2.05;1.25;;;10.80;99.90;;;;;;4982596;28;20030;-93
2022/05/19 04:03:47;;;;;;;11.93;2.30;;;10.70;99.90;;;;;;4977471;28;20129;-95
2022/05/19 04:06:13;;;;;;;6.53;1.85;;;10.70;99.90;;;;;;4977142;28;20507;-93
2022/05/19 04:08:38;;;;;;;4.80;2.53;;;10.70;99.90;;;;;;4976832;28;20034;-93
2022/05/19 04:11:04;;;;;;;6.40;2.30;;;10.70;99.90;;;;;;4977139;28;20581;-94
2022/05/19 04:13:31;;;;;;;8.85;2.60;;;10.70;99.90;;;;;;4976257;28;20042;-94
2022/05/19 04:15:57;;;;;;;5.82;2.65;;;10.70;99.90;;;;;;4976629;28;20034;-94
2022/05/19 04:18:23;;;;;;;8.18;2.72;;;10.70;99.90;;;;;;4975927;28;20025;-94
2022/05/19 04:20:48;;;;;;;7.47;2.20;;;10.60;99.90;;;;;;4976646;28;20022;-94
2022/05/19 04:23:16;;;;;;;9.57;2.22;;;10.60;99.90;;;;;;4976898;28;20130;-94
2022/05/19 04:25:41;;;;;;;5.75;1.88;;;10.60;99.90;;;;;;4978754;28;20023;-96
2022/05/19 04:28:07;;;;;;;7.80;2.40;;;10.60;99.90;;;;;;4983849;28;20034;-95
2022/05/19 04:30:33;;;;;;;7.35;2.28;;;10.70;99.90;;;;;;4978939;28;20038;-94
2022/05/19 04:32:59;;;;;;;12.40;2.50;;;10.70;99.90;;;;;;4977855;28;20030;-93
2022/05/19 04:35:25;;;;;;;6.38;1.83;;;10.70;99.90;;;;;;4978009;28;20027;-94
2022/05/19 04:37:51;;;;;;;8.88;2.40;;;10.70;99.90;;;;;;4977727;28;20019;-94
2022/05/19 04:40:18;;;;;;;8.75;2.50;;;10.70;99.90;;;;;;4978456;28;20041;-95
2022/05/19 04:42:45;;;;;;;4.97;1.73;;;10.80;99.90;;;;;;4978255;28;20026;-93
2022/05/19 04:45:13;;;;;;;9.80;2.58;;;10.70;99.90;;;;;;4982364;28;20088;-95
2022/05/19 04:47:39;;;;;;;8.32;2.40;;;10.70;99.90;;;;;;4978631;28;20030;-94
2022/05/19 04:50:06;;;;;;;8.88;2.90;;;10.70;99.90;;;;;;4978828;28;20042;-94
2022/05/19 04:52:31;;;;;;;6.93;2.40;;;10.80;99.90;;;;;;4987883;28;20037;-94
2022/05/19 04:54:57;;;;;;;4.80;2.20;;;10.70;99.90;;;;;;4987924;28;20634;-94
2022/05/19 04:57:24;;;;;;;7.55;2.30;;;10.70;99.90;;;;;;4986591;28;20085;-95
2022/05/19 04:59:50;;;;;;;8.73;2.80;;;10.70;99.90;;;;;;4981874;28;20034;-95
2022/05/19 05:02:16;;;;;;;7.03;2.55;;;10.70;99.90;;;;;;4995396;28;20064;-94
2022/05/19 05:04:42;;;;;;;7.20;3.10;;;10.70;99.90;;;;;;5000176;28;20117;-95
2022/05/19 05:07:07;;;;;;;6.65;1.73;;;10.70;99.90;;;;;;4998483;28;20569;-94
2022/05/19 05:09:33;;;;;;;6.30;2.30;;;10.70;99.90;;;;;;5000814;28;20045;-95
2022/05/19 05:11:59;;;;;;;9.65;2.50;;;10.80;99.90;;;;;;5004559;28;20487;-94
2022/05/19 05:14:25;;;;;;;5.85;2.03;;;10.80;99.90;;;;;;5001179;28;20054;-95
2022/05/19 05:16:53;;;;;;;8.65;1.83;;;10.70;99.90;;;;;;5001550;28;20049;-94
2022/05/19 05:19:22;;;;;;;9.38;2.00;;;10.80;99.90;;;;;;4999906;28;20029;-94
2022/05/19 05:22:05;;;;;;;7.50;1.98;;;10.80;99.90;;;;;;5000060;28;20029;-95
2022/05/19 05:24:33;;;;;;;6.80;2.22;;;10.80;99.90;;;;;;5005414;28;20034;-93
2022/05/19 05:26:58;;;;;;;4.22;2.65;;;10.80;99.90;;;;;;5024048;28;20022;-95
2022/05/19 05:29:24;;;;;;;5.85;2.15;;;10.80;99.90;;;;;;5012340;28;20022;-93
2022/05/19 05:31:50;;;;;;;9.10;2.60;;;10.70;99.90;;;;;;5009453;28;20080;-95
2022/05/19 05:34:16;;;;;;;9.38;3.95;;;10.80;99.90;;;;;;5008103;28;20049;-93
2022/05/19 05:36:42;;;;;;;6.82;2.75;;;10.80;99.90;;;;;;5007861;28;20033;-94
2022/05/19 05:39:08;;;;;;;7.47;2.47;;;10.70;99.90;;;;;;5009000;28;20025;-95
2022/05/19 05:41:33;;;;;;;7.93;2.38;;;10.70;99.90;;;;;;5012633;28;20036;-94
2022/05/19 05:43:59;;;;;;;7.85;2.50;;;10.70;99.90;;;;;;5010831;28;20033;-95
2022/05/19 05:46:25;;;;;;;10.00;2.45;;;10.70;99.90;;;;;;5009307;28;20038;-93
2022/05/19 05:48:51;;;;;;;7.75;2.45;;;10.70;99.90;;;;;;4999046;28;20010;-92
2022/05/19 05:51:18;;;;;;;9.05;2.22;;;10.80;99.90;;;;;;5000291;28;20022;-92
2022/05/19 05:53:45;;;;;;;9.35;2.50;;;10.90;99.90;;;;;;5001645;28;20033;-93
2022/05/19 05:56:14;;;;;;;11.70;2.85;;;10.90;99.90;;;;;;5002539;28;20018;-93
2022/05/19 05:58:41;;;;;;;8.05;2.40;;;11.00;99.90;;;;;;5002073;28;20022;-93
2022/05/19 06:01:12;;;;;;;9.82;2.33;;;11.10;99.90;;;;;;5002313;28;20061;-93
2022/05/19 06:03:38;;;;;;;11.75;2.42;;;11.10;99.90;;;;;;5002106;28;20023;-94
2022/05/19 06:06:04;;;;;;;4.63;2.25;;;11.20;99.90;;;;;;5001394;28;20053;-93
2022/05/19 06:08:31;;;;;;;9.93;2.35;;;11.30;99.90;;;;;;5000660;28;20018;-93
2022/05/19 06:10:57;;;;;;;13.65;2.65;;;11.30;99.90;;;;;;5000572;28;20045;-93
2022/05/19 06:13:24;;;;;;;8.40;2.30;;;11.30;99.90;;;;;;5001202;28;20034;-93
2022/05/19 06:15:52;;;;;;;12.55;2.42;;;11.40;99.90;;;;;;5002016;28;20014;-94
2022/05/19 06:18:18;;;;;;;8.35;1.58;;;11.50;99.90;;;;;;5000615;28;20023;-94
2022/05/19 06:20:45;;;;;;;6.75;2.00;;;11.50;99.90;;;;;;4999136;28;20050;-92
2022/05/19 06:23:16;;;;;;;6.15;1.77;;;11.50;99.90;;;;;;5009027;28;20018;-94
2022/05/19 06:25:42;;;;;;;;;;;11.60;99.90;;;;;;5017398;28;20127;-94
2022/05/19 06:28:07;;;;;;;12.00;2.22;;;11.70;99.90;;;;;;5001271;28;19901;-93
2022/05/19 06:30:36;;;;;;;9.18;2.10;;;11.80;99.90;;;;;;4998848;28;20125;-95
2022/05/19 06:33:02;;;;;;;6.72;2.10;;;11.80;99.90;;;;;;4996021;28;20107;-95
2022/05/19 06:35:30;;;;;;;10.85;2.33;;;11.80;99.90;;;;;;4998882;28;20025;-93
2022/05/19 06:37:57;;;;;;;9.95;2.00;;;11.90;99.90;;;;;;4995904;28;20094;-95
2022/05/19 06:40:24;;;;;;;12.32;1.90;;;12.00;99.90;;;;;;4990698;28;20019;-93
2022/05/19 06:42:50;;;;;;;8.85;1.75;;;12.00;99.90;;;;;;4988107;28;20026;-94
2022/05/19 06:45:19;;;;;;;14.70;2.58;;;12.10;99.90;;;;;;4996212;28;20026;-94
2022/05/19 06:47:48;;;;;;;7.47;1.90;;;12.10;99.90;;;;;;4998399;28;20026;-95
2022/05/19 06:50:14;;;;;;;13.65;2.42;;;12.20;99.90;;;;;;4997644;28;20038;-95
2022/05/19 06:52:49;;;;;;;11.88;2.10;;;12.20;99.90;;;;;;5012361;28;20036;-92
2022/05/19 06:55:18;;;;;;;18.63;2.78;;;12.30;99.90;;;;;;5010507;28;20030;-95
2022/05/19 06:57:43;;;;;;;13.25;2.10;;;12.30;99.90;;;;;;4983647;28;20022;-95
2022/05/19 07:00:16;;;;;;;14.23;2.17;;;12.30;99.90;;;;;;4989621;28;20024;-94
2022/05/19 07:02:45;;;;;;;9.40;2.00;;;12.30;99.90;;;;;;5001134;28;20289;-94
2022/05/19 07:05:12;;;;;;;8.55;2.00;;;12.30;99.90;;;;;;5002920;28;20121;-94
2022/05/19 07:07:38;;;;;;;8.48;2.00;;;12.30;99.90;;;;;;4995393;28;20069;-93
2022/05/19 07:10:05;;;;;;;13.93;2.05;;;12.40;99.90;;;;;;4999356;28;20049;-94
2022/05/19 07:12:43;;;;;;;13.88;2.75;;;12.40;99.90;;;;;;5001194;28;20026;-90
2022/05/19 07:15:11;;;;;;;12.50;2.13;;;12.50;99.90;;;;;;4997720;28;20030;-96
2022/05/19 07:17:43;;;;;;;11.30;3.28;;;12.50;99.90;;;;;;4996622;28;20076;-94
2022/05/19 07:22:55;;;;;;;10.65;1.65;;;12.60;99.90;;;;;;5013238;28;20041;-94
2022/05/19 07:25:21;;;;;;;9.07;2.17;;;12.70;99.90;;;;;;4993520;28;20386;-96
2022/05/19 07:27:49;;;;;;;9.48;1.55;;;12.70;99.90;;;;;;5006917;28;20037;-94
2022/05/19 07:30:19;;;;;;;5.45;1.85;;;12.70;99.90;;;;;;4993894;28;20038;-94
2022/05/19 07:32:45;;;;;;;12.17;1.90;;;12.80;99.90;;;;;;4997531;28;20038;-95
2022/05/19 07:35:14;;;;;;;12.10;2.00;;;12.80;99.90;;;;;;4991877;28;20455;-94
2022/05/19 07:37:39;;;;;;;10.13;1.85;;;12.80;99.90;;;;;;4994130;28;20018;-96
2022/05/19 07:40:07;;;;;;;13.13;2.65;;;12.90;99.90;;;;;;4991391;28;20036;-96
2022/05/19 07:42:33;;;;;;;11.23;2.03;;;13.00;99.90;;;;;;4987487;28;20026;-94
2022/05/19 07:44:58;;;;;;;10.32;1.70;;;13.00;99.90;;;;;;4987768;28;20023;-94
2022/05/19 07:47:24;;;;;;;9.57;1.95;;;13.00;99.90;;;;;;4992227;28;20041;-96
2022/05/19 07:49:54;;;;;;;9.00;1.63;;;13.00;99.90;;;;;;4991839;28;20043;-95
2022/05/19 07:52:20;;;;;;;11.52;1.85;;;13.10;99.90;;;;;;4990341;28;20053;-95
2022/05/19 07:54:46;;;;;;;13.60;2.08;;;13.10;99.90;;;;;;4985505;28;20022;-94
2022/05/19 07:57:12;;;;;;;9.25;2.25;;;13.10;99.90;;;;;;4984522;28;20033;-96
2022/05/19 07:59:41;;;;;;;9.32;1.83;;;13.20;99.90;;;;;;4993184;28;20045;-95
2022/05/19 08:02:08;;;;;;;11.48;1.95;;;13.20;99.90;;;;;;4983175;28;20027;-93
2022/05/19 08:04:34;;;;;;;7.65;2.00;;;13.20;99.90;;;;;;4979694;28;20026;-96
2022/05/19 08:07:01;;;;;;;12.35;2.50;;;13.20;99.90;;;;;;4984402;28;20025;-95
2022/05/19 08:15:34;;;;;;;12.68;2.25;;;13.20;99.90;;;;;;5000849;28;20088;-93
2022/05/19 08:17:52;;;;;;;9.32;2.15;;;13.30;99.90;;;;;;4980065;28;20435;-94
2022/05/19 08:20:18;;;;;;;7.00;2.13;;;13.20;99.90;;;;;;4976924;28;20113;-95
2022/05/19 08:22:45;;;;;;;6.43;2.10;;;13.20;99.90;;;;;;4974776;28;20081;-96
2022/05/19 08:25:11;;;;;;;9.02;2.50;;;13.20;99.90;;;;;;4976124;28;20031;-95
2022/05/19 08:27:42;;;;;;;10.55;2.75;;;13.20;99.90;;;;;;4975612;28;20054;-94
2022/05/19 08:30:08;;;;;;;9.25;2.38;;;13.20;99.90;;;;;;4974539;28;20125;-94
2022/05/19 08:32:34;;;;;;;15.18;3.45;;;13.20;99.90;;;;;;4975120;28;20031;-95
2022/05/19 08:35:00;;;;;;;12.95;2.83;;;13.30;99.90;;;;;;4980517;28;20053;-95
2022/05/19 08:37:27;;;;;;;12.15;3.20;;;13.30;99.90;;;;;;4991696;28;20011;-95
2022/05/19 08:39:53;;;;;;;7.90;2.85;;;13.20;99.90;;;;;;4983484;28;20038;-94
2022/05/19 08:42:21;;;;;;;10.68;2.75;;;13.20;99.90;;;;;;4975493;28;20078;-93
2022/05/19 08:44:53;;;;;;;12.32;3.20;;;13.30;99.90;;;;;;4974164;28;20027;-94
2022/05/19 08:47:24;;;;;;;8.15;3.35;;;13.30;99.90;;;;;;4974644;28;20392;-95
2022/05/19 08:50:01;;;;;;;10.90;2.90;;;13.30;99.90;;;;;;4973922;28;20034;-94
2022/05/19 08:52:40;;;;;;;12.98;3.20;;;13.30;99.90;;;;;;4973629;28;20042;-94
2022/05/19 08:55:08;;;;;;;11.15;2.67;;;13.30;99.90;;;;;;4974339;28;20030;-94
2022/05/19 08:57:57;;;;;;;10.95;2.60;;;13.30;99.90;;;;;;4974512;28;20037;-96
2022/05/19 09:00:49;;;;;;;15.52;2.95;;;13.30;99.90;;;;;;4977642;28;20058;-93
2022/05/19 09:03:35;;;;;;;6.50;2.55;;;13.30;99.90;;;;;;4971900;28;20046;-95
2022/05/19 09:06:23;;;;;;;9.63;2.80;;;13.30;99.90;;;;;;4978634;28;20086;-95
2022/05/19 09:09:28;;;;;;;7.55;3.20;;;13.30;99.90;;;;;;4963710;29;20039;-94
2022/05/19 09:11:57;;;;;;;9.23;2.60;;;13.40;99.90;;;;;;4961599;29;20577;-94
2022/05/19 09:14:24;;;;;;;7.70;2.60;;;13.60;99.90;;;;;;4967173;28;20058;-95
2022/05/19 09:17:00;;;;;;;9.88;2.92;;;13.70;99.90;;;;;;4968408;28;20541;-95
2022/05/19 09:19:48;;;;;;;17.75;3.88;;;13.90;99.90;;;;;;4967339;28;20023;-94
2022/05/19 09:22:24;;;;;;;10.10;3.65;;;14.10;99.90;;;;;;4964215;28;20159;-92
2022/05/19 09:24:51;;;;;;;11.60;3.00;;;14.30;99.90;;;;;;4961731;28;20039;-93
2022/05/19 09:27:22;;;;;;;8.65;3.03;;;14.50;99.90;;;;;;4962349;28;20023;-93
2022/05/19 09:29:51;;;;;;;11.18;3.47;;;14.60;99.90;;;;;;4961944;28;20073;-93
2022/05/19 09:32:44;;;;;;;9.63;3.10;;;14.50;99.90;;;;;;4962565;28;20290;-93
2022/05/19 09:35:20;;;;;;;9.90;3.15;;;14.50;99.90;;;;;;4979925;28;20547;-93
2022/05/19 09:37:48;;;;;;;9.20;3.00;;;14.40;99.90;;;;;;4969655;28;20034;-93
2022/05/19 09:40:30;;;;;;;7.45;2.85;;;14.40;99.90;;;;;;4963874;28;20027;-93
2022/05/19 09:43:09;;;;;;;9.07;2.78;;;14.40;99.90;;;;;;4946344;28;20059;-94
2022/05/19 09:45:45;;;;;;;13.38;3.08;;;14.30;99.90;;;;;;4974834;28;20072;-92
2022/05/19 09:48:12;;;;;;;8.32;2.80;;;14.20;99.90;;;;;;4987520;28;20038;-93
2022/05/19 09:50:44;;;;;;;9.23;2.63;;;14.20;99.90;;;;;;4984512;28;20491;-93
2022/05/19 09:53:25;;;;;;;11.20;3.15;;;14.10;99.90;;;;;;4980272;28;20030;-91
2022/05/19 09:56:00;;;;;;;8.77;2.90;;;14.10;99.90;;;;;;4979870;28;20041;-94
2022/05/19 09:58:34;;;;;;;9.57;2.80;;;14.10;99.90;;;;;;4981250;28;20022;-94
2022/05/19 10:01:16;;;;;;;10.27;2.65;;;14.10;99.90;;;;;;4994006;28;20109;-93
2022/05/19 10:03:58;;;;;;;8.48;2.88;;;14.10;99.90;;;;;;4961378;28;20042;-93
2022/05/19 10:06:35;;;;;;;11.00;3.15;;;14.00;99.90;;;;;;4961762;28;20031;-92
2022/05/19 10:09:14;;;;;;;6.82;2.85;;;14.00;99.90;;;;;;4961975;28;20061;-94
2022/05/19 10:11:50;;;;;;;13.00;3.17;;;14.00;99.90;;;;;;4969429;28;20034;-92
2022/05/19 10:14:20;;;;;;;6.88;2.70;;;14.00;99.90;;;;;;4966326;28;20055;-94
2022/05/19 10:17:05;;;;;;;7.80;2.80;;;14.00;99.90;;;;;;4959596;28;20109;-93
2022/05/19 10:19:48;;;;;;;5.05;2.75;;;14.10;99.90;;;;;;4960742;28;20019;-92
2022/05/19 10:23:07;;;;;;;8.88;2.58;;;14.20;99.90;;;;;;4961279;28;20031;-94
2022/05/19 10:26:20;;;;;;;8.95;3.17;;;14.20;99.90;;;;;;4913799;29;20036;-92
2022/05/19 10:32:17;;;;;;;9.80;2.85;;;14.40;99.90;;;;;;4918680;29;20055;-93
2022/05/19 10:34:48;;;;;;;8.48;2.97;;;14.40;99.90;;;;;;4902113;29;20123;-93
2022/05/19 10:37:31;;;;;;;7.03;2.30;;;14.30;99.90;;;;;;4902381;29;20101;-92
2022/05/19 10:40:29;;;;;;;5.85;2.05;;;14.30;99.90;;;;;;4922790;29;20028;-93
2022/05/19 10:43:14;;;;;;;8.77;2.13;;;14.20;99.90;;;;;;4906808;29;20040;-93
2022/05/19 10:45:49;;;;;;;8.35;1.95;;;14.10;99.90;;;;;;4905725;29;20123;-93
2022/05/19 10:48:24;;;;;;;5.97;1.90;;;14.10;99.90;;;;;;4904366;29;20041;-93
2022/05/19 10:51:07;;;;;;;8.00;1.73;;;14.00;99.90;;;;;;4902638;29;20082;-93
2022/05/19 10:53:39;;;;;;;8.80;2.40;;;14.00;99.90;;;;;;4902701;29;20096;-95
2022/05/19 10:56:17;;;;;;;8.23;1.88;;;14.00;99.90;;;;;;4902377;29;20552;-94
2022/05/19 10:59:01;;;;;;;6.50;1.83;;;13.90;99.90;;;;;;4902095;29;20597;-93
2022/05/19 11:01:59;;;;;;;7.43;2.05;;;13.90;99.90;;;;;;4945947;28;20042;-93
2022/05/19 11:04:57;;;;;;;8.80;2.92;;;13.90;99.90;;;;;;4927092;28;20035;-94
2022/05/19 11:07:27;;;;;;;9.38;1.85;;;14.00;99.90;;;;;;4959779;28;20023;-94
2022/05/19 11:10:20;;;;;;;7.78;1.90;;;14.00;99.90;;;;;;4959415;28;20082;-94
2022/05/19 11:12:58;;;;;;;15.40;2.20;;;14.10;99.90;;;;;;4976760;28;20122;-94
2022/05/19 11:15:37;;;;;;;7.68;2.28;;;14.10;99.90;;;;;;4959654;28;20495;-93
2022/05/19 11:18:28;;;;;;;7.47;2.10;;;14.10;99.90;;;;;;4977039;28;20046;-94
2022/05/19 11:21:00;;;;;;;9.68;2.00;;;14.20;99.90;;;;;;4960000;28;20018;-92
2022/05/19 11:23:44;;;;;;;7.35;2.15;;;14.30;99.90;;;;;;4959941;28;20030;-93
2022/05/19 11:26:24;;;;;;;8.68;2.00;;;14.40;99.90;;;;;;4963119;28;20031;-95
2022/05/19 11:29:17;;;;;;;6.15;2.15;;;14.60;99.90;;;;;;4982359;28;20038;-93
2022/05/19 11:32:13;;;;;;;7.10;1.70;;;14.80;99.90;;;;;;4961697;28;20563;-93
2022/05/19 11:35:08;;;;;;;7.53;1.70;;;15.20;99.90;;;;;;4976712;28;20031;-93
2022/05/19 11:37:58;;;;;;;9.23;1.40;;;15.50;99.90;;;;;;4960063;28;20031;-94
2022/05/19 11:40:23;;;;;;;5.60;1.92;;;15.50;99.90;;;;;;4971608;28;20030;-93
2022/05/19 11:43:09;;;;;;;9.07;2.22;;;15.70;99.90;;;;;;4977907;28;20045;-92
2022/05/19 11:45:44;;;;;;;5.47;1.80;;;15.90;99.90;;;;;;4985479;28;20053;-91
2022/05/19 11:57:29;;;;;;;7.10;1.63;;;16.20;98.10;;;;;;4999858;28;20085;-92
2022/05/19 11:59:58;;;;;;;6.63;1.80;;;16.70;97.70;;;;;;4977433;28;20034;-93
2022/05/19 12:02:48;;;;;;;9.35;1.70;;;17.00;95.90;;;;;;4977889;28;20027;-94
2022/05/19 12:05:36;;;;;;;8.38;1.63;;;17.20;94.80;;;;;;4977836;28;20022;-92
2022/05/19 12:08:23;;;;;;;12.20;1.58;;;17.40;92.80;;;;;;4986684;28;20080;-93
2022/05/19 12:11:16;;;;;;;9.63;1.50;;;17.60;92.10;;;;;;4977826;28;20149;-92
2022/05/19 12:14:08;;;;;;;6.25;1.40;;;17.80;90.20;;;;;;4977356;28;20045;-94
2022/05/19 12:16:58;;;;;;;8.02;2.03;;;18.10;90.00;;;;;;4977226;28;20046;-92
2022/05/19 12:19:39;;;;;;;6.57;1.40;;;18.40;88.60;;;;;;4977677;28;20584;-94
2022/05/19 12:22:12;;;;;;;9.82;2.15;;;18.70;87.00;;;;;;4977438;28;20027;-94
2022/05/19 12:25:11;;;;;;;8.25;1.30;;;18.90;85.10;;;;;;4979271;28;20114;-94
2022/05/19 12:27:38;;;;;;;7.18;1.40;;;19.10;82.80;;;;;;4976382;28;20081;-94
2022/05/19 12:33:18;;;;;;;3.78;1.00;;;19.40;79.20;;;;;;4994676;28;20050;-91
2022/05/19 12:35:59;;;;;;;5.32;1.25;;;19.50;76.40;;;;;;4977169;28;20057;-93
2022/05/19 12:39:22;;;;;;;3.05;1.23;;;19.70;75.20;;;;;;4977637;28;20035;-92
2022/05/19 12:41:51;;;;;;;7.13;1.40;;;19.90;73.40;;;;;;4978888;28;20054;-94
2022/05/19 12:44:35;;;;;;;3.13;0.90;;;20.20;71.30;;;;;;4978722;28;20082;-93
2022/05/19 12:47:21;;;;;;;4.97;1.27;;;20.40;70.40;;;;;;4977931;28;20023;-93
2022/05/19 12:50:06;;;;;;;7.53;1.75;;;20.50;68.00;;;;;;4977399;28;20057;-94
2022/05/19 12:53:05;;;;;;;3.60;1.27;;;20.70;67.60;;;;;;4977309;28;20030;-93
2022/05/19 12:55:37;;;;;;;4.38;0.90;;;21.00;66.00;;;;;;4976524;28;20033;-94
2022/05/19 12:58:38;;;;;;;5.53;1.00;;;21.20;65.40;;;;;;4977212;28;20081;-93
2022/05/19 13:01:33;;;;;;;5.85;1.10;;;21.60;64.40;;;;;;4990425;28;20045;-93
2022/05/19 13:04:04;;;;;;;6.22;1.27;;;21.70;62.60;;;;;;4899535;29;20045;-95
2022/05/19 13:06:32;;;;;;;2.90;0.95;;;21.80;61.20;;;;;;4915879;29;20092;-94
2022/05/19 13:09:02;;;;;;;2.92;0.93;;;21.80;59.40;;;;;;4916059;29;20403;-92
2022/05/19 13:11:33;;;;;;;;;;;21.70;58.10;;;;;;4916679;29;20115;-94
2022/05/19 13:14:47;;;;;;;5.18;1.20;;;21.70;58.00;;;;;;4915696;29;20492;-94
2022/05/19 13:17:25;;;;;;;7.68;1.30;;;21.80;57.80;;;;;;4896193;29;20036;-93
2022/05/19 13:19:50;;;;;;;8.30;1.70;;;22.00;57.90;;;;;;4905540;29;20119;-93
2022/05/19 13:22:23;;;;;;;3.50;1.05;;;22.20;58.00;;;;;;4922442;29;20462;-93
2022/05/19 13:24:49;;;;;;;9.40;1.40;;;22.20;57.80;;;;;;4900409;29;20494;-94
2022/05/19 13:30:28;;;;;;;7.78;1.50;;;22.40;57.00;;;;;;4916924;29;20581;-93
2022/05/19 13:33:18;;;;;;;4.88;1.00;;;22.50;56.70;;;;;;4899934;29;20120;-94
2022/05/19 13:35:44;;;;;;;5.95;1.30;;;22.60;56.50;;;;;;4906806;29;20091;-94
2022/05/19 13:38:22;;;;;;;5.05;1.35;;;22.70;56.30;;;;;;4891509;29;20041;-94
2022/05/19 13:40:49;;;;;;;5.38;0.90;;;22.90;56.90;;;;;;4922682;28;20031;-95
2022/05/19 13:43:28;;;;;;;3.30;1.25;;;23.00;56.50;;;;;;4962366;28;20089;-93